Edgerton, Indiana
Current Conditions -  °F | °C
As of 11:15 AM on Monday 24 Nov 2014 (Local Time) from KGWB Reporting Station
Overcast Overcast  
Wind Chill: 39°   Ceiling: 1200
Heat Index: 46°   Visibility: 10mi
Dew Point: 12°   Wind: 20mph
Humidity: 25%   Direction: 230°SW
Pressure: 29.23"   Gusts: 31mph
Location:  41.1055°N, 84.8542°W
Report Text: KGWB 241615Z AUTO 23017G27KT 10SM OVC012 08/M11 A2923 RMK AO2
Loading
Personal Weather Stations






























Interactive Weather Map New forecast layout! Learn more

10-Day Weather Forecast

Advertisements
Track Severe Weather on mobile